createdAt,value
2019-01-22T00:00:04.900Z,65.38
2019-01-22T00:01:08.991Z,65.43
2019-01-22T00:02:12.576Z,65.41
2019-01-22T00:03:16.261Z,65.32
2019-01-22T00:04:19.738Z,65.41
2019-01-22T00:05:23.349Z,65.46
2019-01-22T00:06:26.937Z,65.34
2019-01-22T00:07:30.436Z,65.38
2019-01-22T00:08:33.873Z,65.18
2019-01-22T00:09:37.413Z,65.13
2019-01-22T00:10:42.324Z,65.18
2019-01-22T00:11:46.014Z,65.27
2019-01-22T00:12:49.833Z,65.23
2019-01-22T00:13:53.336Z,65.35
2019-01-22T00:14:56.780Z,65.34
2019-01-22T00:16:00.351Z,65.18
2019-01-22T00:17:03.784Z,64.96
2019-01-22T00:18:07.305Z,64.95
2019-01-22T00:19:10.910Z,65.08
2019-01-22T00:20:15.677Z,64.89
2019-01-22T00:21:19.219Z,65.06
2019-01-22T00:22:22.735Z,65.25
2019-01-22T00:23:26.220Z,65.33
2019-01-22T00:24:29.715Z,65.39
2019-01-22T00:25:33.225Z,65.59
2019-01-22T00:26:36.868Z,65.49
2019-01-22T00:27:40.580Z,65.53
2019-01-22T00:28:44.195Z,65.62
2019-01-22T00:29:47.713Z,65.73
2019-01-22T00:30:51.146Z,65.77
2019-01-22T00:31:55.114Z,65.54
2019-01-22T00:32:58.602Z,65.55
2019-01-22T00:34:02.098Z,65.38
2019-01-22T00:35:06.275Z,65.34
2019-01-22T00:36:09.776Z,65.37
2019-01-22T00:37:13.274Z,65.49
2019-01-22T00:38:16.803Z,65.78
2019-01-22T00:39:20.303Z,66.16
2019-01-22T00:40:23.817Z,66.37
2019-01-22T00:41:27.312Z,66.64
2019-01-22T00:42:30.815Z,66.55
2019-01-22T00:43:34.553Z,66.56
2019-01-22T00:44:38.217Z,66.67
2019-01-22T00:45:41.716Z,66.64
2019-01-22T00:46:45.151Z,66.58
2019-01-22T00:47:48.590Z,66.45
2019-01-22T00:48:52.041Z,66.49
2019-01-22T00:49:55.486Z,66.43
2019-01-22T00:50:58.943Z,66.60
2019-01-22T00:52:02.386Z,66.63
2019-01-22T00:53:09.914Z,66.59
2019-01-22T00:54:11.081Z,66.59
2019-01-22T00:55:18.996Z,66.48
2019-01-22T00:56:22.491Z,66.53
2019-01-22T00:57:25.920Z,66.50
2019-01-22T00:58:29.352Z,66.61
2019-01-22T00:59:33.571Z,66.56
2019-01-22T01:00:37.479Z,66.57
2019-01-22T01:01:40.974Z,66.52
2019-01-22T01:02:44.554Z,66.45
2019-01-22T01:03:48.075Z,66.47
2019-01-22T01:04:51.588Z,66.49
2019-01-22T01:05:55.085Z,66.52
2019-01-22T01:06:58.739Z,66.53
2019-01-22T01:08:02.253Z,66.56
2019-01-22T01:09:07.862Z,66.56
2019-01-22T01:10:13.266Z,66.41
2019-01-22T01:11:16.770Z,66.35
2019-01-22T01:12:20.285Z,66.18
2019-01-22T01:13:23.946Z,66.15
2019-01-22T01:14:27.541Z,66.05
2019-01-22T01:15:31.224Z,65.96
2019-01-22T01:16:35.038Z,66.02
2019-01-22T01:17:38.560Z,66.03
2019-01-22T01:18:42.159Z,66.07
2019-01-22T01:19:45.750Z,66.19
2019-01-22T01:20:49.258Z,66.16
2019-01-22T01:21:52.697Z,66.14
2019-01-22T01:22:56.245Z,65.93
2019-01-22T01:23:59.828Z,65.70
2019-01-22T01:25:03.538Z,65.64
2019-01-22T01:26:06.976Z,65.72
2019-01-22T01:27:10.650Z,65.78
2019-01-22T01:28:14.091Z,65.75
2019-01-22T01:29:17.555Z,65.81
2019-01-22T01:30:23.223Z,65.91
2019-01-22T01:31:27.187Z,65.83
2019-01-22T01:32:30.698Z,65.89
2019-01-22T01:33:34.181Z,65.78
2019-01-22T01:34:37.719Z,65.70
2019-01-22T01:35:41.189Z,65.79
2019-01-22T01:36:44.731Z,65.81
2019-01-22T01:37:48.233Z,65.97
2019-01-22T01:38:51.700Z,66.15
2019-01-22T01:39:55.164Z,66.36
2019-01-22T01:40:58.598Z,66.54
2019-01-22T01:42:02.202Z,66.54
2019-01-22T01:43:05.786Z,66.53
2019-01-22T01:44:09.381Z,66.57
2019-01-22T01:45:13.059Z,66.62
2019-01-22T01:46:16.883Z,66.70
2019-01-22T01:47:20.405Z,66.76
2019-01-22T01:48:23.911Z,67.53
2019-01-22T01:49:27.389Z,67.52
2019-01-22T01:50:30.890Z,67.43
2019-01-22T01:51:34.400Z,67.69
2019-01-22T01:52:37.919Z,67.75
2019-01-22T01:53:41.529Z,68.46
2019-01-22T01:54:45.149Z,68.53
2019-01-22T01:55:48.745Z,68.31
2019-01-22T01:56:52.276Z,68.21
2019-01-22T01:57:55.805Z,68.10
2019-01-22T01:58:59.335Z,68.09
2019-01-22T02:00:03.007Z,67.90
2019-01-22T02:01:06.742Z,67.73
2019-01-22T02:02:13.168Z,67.75
2019-01-22T02:03:16.668Z,68.19
2019-01-22T02:04:20.132Z,68.20
2019-01-22T02:05:25.196Z,68.01
2019-01-22T02:06:28.717Z,68.05
2019-01-22T02:07:32.433Z,68.09
2019-01-22T02:08:35.842Z,67.98
2019-01-22T02:09:39.379Z,68.30
2019-01-22T02:10:42.957Z,68.17
2019-01-22T02:11:46.409Z,68.38
2019-01-22T02:12:55.692Z,68.20
2019-01-22T02:13:59.274Z,68.07
2019-01-22T02:15:02.961Z,68.11
2019-01-22T02:16:21.179Z,68.51
2019-01-22T02:17:39.592Z,68.58
2019-01-22T02:18:48.810Z,68.51
2019-01-22T02:19:58.201Z,68.20
2019-01-22T02:21:22.561Z,68.10
2019-01-22T02:22:34.922Z,67.99
2019-01-22T02:23:43.954Z,67.80
2019-01-22T02:24:53.088Z,67.76
2019-01-22T02:26:19.831Z,67.67
2019-01-22T02:27:32.340Z,67.83
2019-01-22T02:28:54.889Z,68.30
2019-01-22T02:30:17.365Z,68.11
2019-01-22T02:31:23.869Z,68.15
2019-01-22T02:32:30.382Z,68.17
2019-01-22T02:33:36.876Z,68.04
2019-01-22T02:34:52.098Z,68.21
2019-01-22T02:36:01.224Z,68.26
2019-01-22T02:37:37.513Z,68.39
2019-01-22T02:38:55.633Z,68.23
2019-01-22T02:40:07.649Z,68.16
2019-01-22T02:41:16.893Z,67.91
2019-01-22T02:42:28.986Z,67.87
2019-01-22T02:43:53.109Z,67.73
2019-01-22T02:45:18.506Z,67.39
2019-01-22T02:46:54.848Z,67.44
2019-01-22T02:48:01.327Z,67.34
2019-01-22T02:49:25.743Z,67.28
2019-01-22T02:50:40.689Z,67.30
2019-01-22T02:51:52.679Z,67.20
2019-01-22T02:52:59.204Z,67.06
2019-01-22T02:54:06.039Z,67.15
2019-01-22T02:55:18.026Z,67.61
2019-01-22T02:56:27.409Z,68.01
2019-01-22T02:57:48.647Z,68.11
2019-01-22T02:59:01.060Z,68.29
2019-01-22T03:00:29.857Z,68.40
2019-01-22T03:02:07.800Z,68.34
2019-01-22T03:03:35.118Z,68.31
2019-01-22T03:04:41.629Z,68.05
2019-01-22T03:06:12.245Z,67.94
2019-01-22T03:07:33.857Z,67.85
2019-01-22T03:08:59.850Z,68.04
2019-01-22T03:10:15.102Z,67.96
2019-01-22T03:11:37.980Z,67.93
2019-01-22T03:12:44.526Z,67.99
2019-01-22T03:14:07.122Z,67.94
2019-01-22T03:15:41.989Z,67.96
2019-01-22T03:16:48.518Z,67.86
2019-01-22T03:18:15.614Z,67.85
2019-01-22T03:19:33.771Z,67.85
2019-01-22T03:20:49.194Z,67.75
2019-01-22T03:21:55.923Z,67.64
2019-01-22T03:23:08.489Z,67.58
2019-01-22T03:24:37.256Z,67.51
2019-01-22T03:25:46.546Z,67.55
2019-01-22T03:27:08.186Z,67.51
2019-01-22T03:28:23.546Z,67.35
2019-01-22T03:29:44.959Z,67.30
2019-01-22T03:30:51.489Z,67.30
2019-01-22T03:32:15.640Z,67.30
2019-01-22T03:33:22.116Z,67.49
2019-01-22T03:34:31.205Z,67.66
2019-01-22T03:35:46.803Z,67.67
2019-01-22T03:37:23.161Z,67.68
2019-01-22T03:38:44.305Z,67.63
2019-01-22T03:39:50.804Z,67.64
2019-01-22T03:41:22.684Z,67.55
2019-01-22T03:42:34.996Z,67.73
2019-01-22T03:43:57.715Z,67.69
2019-01-22T03:45:16.072Z,67.67
2019-01-22T03:46:22.573Z,67.69
2019-01-22T03:47:53.098Z,67.67
2019-01-22T03:49:08.313Z,67.77
2019-01-22T03:50:32.942Z,67.84
2019-01-22T03:51:39.459Z,67.90
2019-01-22T03:52:45.959Z,67.92
2019-01-22T03:54:20.831Z,67.89
2019-01-22T03:55:45.315Z,67.88
2019-01-22T03:57:09.779Z,67.73
2019-01-22T03:58:13.292Z,67.62
2019-01-22T03:59:16.858Z,67.50
2019-01-22T04:00:22.318Z,67.69
2019-01-22T04:01:25.923Z,67.86
2019-01-22T04:02:30.514Z,67.91
2019-01-22T04:03:34.103Z,67.94
2019-01-22T04:04:37.535Z,67.84
2019-01-22T04:05:40.977Z,67.85
2019-01-22T04:06:45.030Z,67.95
2019-01-22T04:07:48.619Z,67.92
2019-01-22T04:08:53.612Z,67.92
2019-01-22T04:09:58.992Z,67.89
2019-01-22T04:11:04.282Z,67.88
2019-01-22T04:12:07.818Z,67.81
2019-01-22T04:13:11.440Z,67.71
2019-01-22T04:14:14.959Z,67.68
2019-01-22T04:15:21.519Z,67.74
2019-01-22T04:16:25.312Z,67.81
2019-01-22T04:17:28.953Z,67.87
2019-01-22T04:18:32.565Z,68.01
2019-01-22T04:19:36.142Z,68.03
2019-01-22T04:20:39.648Z,67.98
2019-01-22T04:21:43.228Z,67.90
2019-01-22T04:22:48.251Z,67.89
2019-01-22T04:24:01.454Z,67.87
2019-01-22T04:25:05.788Z,67.80
2019-01-22T04:26:28.695Z,67.69
2019-01-22T04:27:37.904Z,67.72
2019-01-22T04:29:09.685Z,67.58
2019-01-22T04:30:27.847Z,67.42
2019-01-22T04:31:37.012Z,67.17
2019-01-22T04:32:43.548Z,67.16
2019-01-22T04:34:12.149Z,67.21
2019-01-22T04:35:39.682Z,67.23
2019-01-22T04:36:58.195Z,67.23
2019-01-22T04:38:04.709Z,67.20
2019-01-22T04:39:16.815Z,67.29
2019-01-22T04:40:23.312Z,67.37
2019-01-22T04:41:48.806Z,67.43
2019-01-22T04:43:20.704Z,67.50
2019-01-22T04:44:47.480Z,67.50
2019-01-22T04:45:53.972Z,67.45
2019-01-22T04:47:12.544Z,67.23
2019-01-22T04:48:27.230Z,67.30
2019-01-22T04:49:33.801Z,67.41
2019-01-22T04:50:46.125Z,67.42
2019-01-22T04:51:55.594Z,67.34
2019-01-22T04:53:20.166Z,67.38
2019-01-22T04:54:32.466Z,67.33
2019-01-22T04:56:10.590Z,67.42
2019-01-22T04:57:25.835Z,67.46
2019-01-22T04:58:38.182Z,67.45
2019-01-22T04:59:44.689Z,67.42
2019-01-22T05:01:02.920Z,67.28
2019-01-22T05:02:18.119Z,67.33
2019-01-22T05:03:27.534Z,67.62
2019-01-22T05:04:36.725Z,67.69
2019-01-22T05:05:48.660Z,67.64
2019-01-22T05:07:15.650Z,67.69
2019-01-22T05:08:40.460Z,67.69
2019-01-22T05:10:03.156Z,67.68
2019-01-22T05:11:15.090Z,68.08
2019-01-22T05:12:33.674Z,68.49
2019-01-22T05:13:48.844Z,68.63
2019-01-22T05:15:17.311Z,68.65
2019-01-22T05:16:29.196Z,68.59
2019-01-22T05:17:41.471Z,68.46
2019-01-22T05:18:59.652Z,68.33
2019-01-22T05:20:06.138Z,68.21
2019-01-22T05:21:36.468Z,68.10
2019-01-22T05:22:45.710Z,68.04
2019-01-22T05:24:00.787Z,67.83
2019-01-22T05:25:10.048Z,67.94
2019-01-22T05:26:19.260Z,67.95
2019-01-22T05:27:34.310Z,67.93
2019-01-22T05:28:52.659Z,67.86
2019-01-22T05:30:13.108Z,67.86
2019-01-22T05:31:40.219Z,67.92
2019-01-22T05:32:52.415Z,67.94
2019-01-22T05:33:58.914Z,67.96
2019-01-22T05:35:17.112Z,67.97
2019-01-22T05:36:38.503Z,68.01
2019-01-22T05:37:59.548Z,68.02
2019-01-22T05:39:14.328Z,67.97
2019-01-22T05:40:37.196Z,67.94
2019-01-22T05:42:01.617Z,67.80
2019-01-22T05:43:13.362Z,67.70
2019-01-22T05:44:34.611Z,67.62
2019-01-22T05:46:00.365Z,67.63
2019-01-22T05:47:12.539Z,67.61
2019-01-22T05:48:19.006Z,67.71
2019-01-22T05:49:40.114Z,67.76
2019-01-22T05:50:49.465Z,67.74
2019-01-22T05:52:07.746Z,67.82
2019-01-22T05:53:25.878Z,67.77
2019-01-22T05:54:32.403Z,67.97
2019-01-22T05:55:53.605Z,67.86
2019-01-22T05:57:00.087Z,67.84
2019-01-22T05:58:37.777Z,67.99
2019-01-22T05:59:59.032Z,67.99
2019-01-22T06:01:05.650Z,67.93
2019-01-22T06:02:12.165Z,67.94
2019-01-22T06:03:27.743Z,67.87
2019-01-22T06:04:49.033Z,67.87
2019-01-22T06:05:59.837Z,67.96
2019-01-22T06:07:09.181Z,68.07
2019-01-22T06:08:33.555Z,68.03
2019-01-22T06:09:48.880Z,68.15
2019-01-22T06:10:55.378Z,68.26
2019-01-22T06:12:16.779Z,68.20
2019-01-22T06:13:28.972Z,68.23
2019-01-22T06:14:41.272Z,68.13
2019-01-22T06:15:47.822Z,68.08
2019-01-22T06:17:13.471Z,68.13
2019-01-22T06:18:20.046Z,68.17
2019-01-22T06:19:35.252Z,68.21
2019-01-22T06:20:59.527Z,68.33
2019-01-22T06:22:22.324Z,68.42
2019-01-22T06:23:46.570Z,68.44
2019-01-22T06:24:55.899Z,68.47
2019-01-22T06:26:11.054Z,68.58
2019-01-22T06:27:20.126Z,68.61
2019-01-22T06:28:35.143Z,68.51
2019-01-22T06:30:00.905Z,68.47
2019-01-22T06:31:22.629Z,68.39
2019-01-22T06:32:31.938Z,68.45
2019-01-22T06:33:38.434Z,68.38
2019-01-22T06:34:44.914Z,68.34
2019-01-22T06:36:09.382Z,68.25
2019-01-22T06:37:15.879Z,68.35
2019-01-22T06:38:22.373Z,68.42
2019-01-22T06:39:31.865Z,68.38
2019-01-22T06:40:54.546Z,68.33
2019-01-22T06:42:25.258Z,68.50
2019-01-22T06:43:31.813Z,68.42
2019-01-22T06:44:44.126Z,68.35
2019-01-22T06:45:50.660Z,68.33
2019-01-22T06:47:12.049Z,68.32
2019-01-22T06:48:39.182Z,68.33
2019-01-22T06:50:00.336Z,68.36
2019-01-22T06:51:21.049Z,68.38
2019-01-22T06:52:42.297Z,68.43
2019-01-22T06:53:57.081Z,68.46
2019-01-22T06:55:09.368Z,68.44
2019-01-22T06:56:39.841Z,68.39
2019-01-22T06:58:13.028Z,68.43
2019-01-22T06:59:22.357Z,68.26
2019-01-22T07:00:31.587Z,68.14
2019-01-22T07:01:46.532Z,68.26
2019-01-22T07:02:55.929Z,68.23
2019-01-22T07:04:02.582Z,68.18
2019-01-22T07:05:11.615Z,68.14
2019-01-22T07:06:34.801Z,68.15
2019-01-22T07:07:52.770Z,68.24
2019-01-22T07:09:21.555Z,68.44
2019-01-22T07:10:33.312Z,68.55
2019-01-22T07:11:42.298Z,68.45
2019-01-22T07:12:48.831Z,68.50
2019-01-22T07:14:00.982Z,68.57
2019-01-22T07:15:19.202Z,68.67
2019-01-22T07:16:28.239Z,68.51
2019-01-22T07:17:37.516Z,68.56
2019-01-22T07:18:55.965Z,68.55
2019-01-22T07:20:14.208Z,68.50
2019-01-22T07:21:32.559Z,68.55
2019-01-22T07:22:39.066Z,68.60
2019-01-22T07:23:45.638Z,68.56
2019-01-22T07:24:54.570Z,68.51
2019-01-22T07:26:09.864Z,68.43
2019-01-22T07:27:19.196Z,68.25
2019-01-22T07:28:25.769Z,68.16
2019-01-22T07:29:44.169Z,68.13
2019-01-22T07:31:06.057Z,68.06
2019-01-22T07:32:27.794Z,68.12
2019-01-22T07:33:52.020Z,68.06
2019-01-22T07:35:15.827Z,67.89
2019-01-22T07:36:47.723Z,67.75
2019-01-22T07:37:54.224Z,67.80
2019-01-22T07:39:09.077Z,67.83
2019-01-22T07:40:36.283Z,67.85
2019-01-22T07:41:57.460Z,67.84
2019-01-22T07:43:21.600Z,67.84
2019-01-22T07:44:33.979Z,67.82
2019-01-22T07:45:59.852Z,67.66
2019-01-22T07:47:25.642Z,67.68
2019-01-22T07:48:32.338Z,67.56
2019-01-22T07:49:41.845Z,67.91
2019-01-22T07:50:50.935Z,67.92
2019-01-22T07:52:06.167Z,67.98
2019-01-22T07:53:30.206Z,67.86
2019-01-22T07:55:03.554Z,67.69
2019-01-22T07:56:21.735Z,67.62
2019-01-22T07:57:39.873Z,67.57
2019-01-22T07:59:10.188Z,67.60
2019-01-22T08:00:19.397Z,67.79
2019-01-22T08:01:43.914Z,67.79
2019-01-22T08:02:59.284Z,67.81
2019-01-22T08:04:13.087Z,67.71
2019-01-22T08:05:30.007Z,67.67
2019-01-22T08:07:01.760Z,67.75
2019-01-22T08:08:27.846Z,67.75
2019-01-22T08:09:51.973Z,67.62
2019-01-22T08:11:01.270Z,67.52
2019-01-22T08:12:26.523Z,67.38
2019-01-22T08:13:33.014Z,67.29
2019-01-22T08:14:45.394Z,67.38
2019-01-22T08:16:00.696Z,67.32
2019-01-22T08:17:18.926Z,67.49
2019-01-22T08:18:30.652Z,67.47
2019-01-22T08:19:57.869Z,67.48
2019-01-22T08:21:06.860Z,67.48
2019-01-22T08:22:24.964Z,67.47
2019-01-22T08:23:55.078Z,67.41
2019-01-22T08:25:13.581Z,67.35
2019-01-22T08:26:37.917Z,67.12
2019-01-22T08:28:09.337Z,67.33
2019-01-22T08:29:21.140Z,67.35
2019-01-22T08:30:45.309Z,67.38
2019-01-22T08:32:10.817Z,67.46
2019-01-22T08:33:17.309Z,67.58
2019-01-22T08:34:54.930Z,67.99
2019-01-22T08:36:09.778Z,68.01
2019-01-22T08:37:37.108Z,67.92
2019-01-22T08:38:43.606Z,67.85
2019-01-22T08:40:01.604Z,67.86
2019-01-22T08:41:26.131Z,68.02
2019-01-22T08:42:35.539Z,68.07
2019-01-22T08:44:08.832Z,68.06
2019-01-22T08:45:27.338Z,67.83
2019-01-22T08:46:36.612Z,67.61
2019-01-22T08:48:00.816Z,67.54
2019-01-22T08:49:10.164Z,67.67
2019-01-22T08:50:16.640Z,67.93
2019-01-22T08:51:42.177Z,68.13
2019-01-22T08:52:57.424Z,68.23
2019-01-22T08:54:32.071Z,68.24
2019-01-22T08:55:38.560Z,68.09
2019-01-22T08:57:01.153Z,67.82
2019-01-22T08:58:18.790Z,67.62
2019-01-22T08:59:25.309Z,67.45
2019-01-22T09:00:37.224Z,67.41
2019-01-22T09:01:51.626Z,67.49
2019-01-22T09:03:17.266Z,67.56
2019-01-22T09:04:32.641Z,67.60
2019-01-22T09:05:39.133Z,67.61
2019-01-22T09:07:12.496Z,67.53
2019-01-22T09:08:18.979Z,67.44
2019-01-22T09:09:28.226Z,67.39
2019-01-22T09:11:01.879Z,67.24
2019-01-22T09:12:14.423Z,67.02
2019-01-22T09:13:29.562Z,66.91
2019-01-22T09:14:38.994Z,66.95
2019-01-22T09:16:01.786Z,66.90
2019-01-22T09:17:24.854Z,66.88
2019-01-22T09:18:40.752Z,66.99
2019-01-22T09:19:53.107Z,67.02
2019-01-22T09:21:05.561Z,67.02
2019-01-22T09:22:34.357Z,67.03
2019-01-22T09:23:46.627Z,67.01
2019-01-22T09:24:59.002Z,66.87
2019-01-22T09:26:17.082Z,66.66
2019-01-22T09:27:29.323Z,66.85
2019-01-22T09:28:44.655Z,66.99
2019-01-22T09:30:20.795Z,67.00
2019-01-22T09:31:27.277Z,67.03
2019-01-22T09:32:48.353Z,66.90
2019-01-22T09:33:54.868Z,66.88
2019-01-22T09:35:17.346Z,66.88
2019-01-22T09:36:47.363Z,67.04
2019-01-22T09:37:50.939Z,67.03
2019-01-22T09:38:54.468Z,66.67
2019-01-22T09:39:57.971Z,66.81
2019-01-22T09:41:01.544Z,66.88
2019-01-22T09:42:05.119Z,67.01
2019-01-22T09:43:08.713Z,66.95
2019-01-22T09:44:12.179Z,67.02
2019-01-22T09:45:15.760Z,67.00
2019-01-22T09:46:19.221Z,66.94
2019-01-22T09:47:22.658Z,66.95
2019-01-22T09:48:26.169Z,66.85
2019-01-22T09:49:29.711Z,66.76
2019-01-22T09:50:34.236Z,66.81
2019-01-22T09:51:37.813Z,66.60
2019-01-22T09:52:41.257Z,66.62
2019-01-22T09:53:44.687Z,66.77
2019-01-22T09:54:48.213Z,66.68
2019-01-22T09:55:51.675Z,66.68
2019-01-22T09:56:55.191Z,66.70
2019-01-22T09:57:58.634Z,66.69
2019-01-22T09:59:02.197Z,66.63
2019-01-22T10:00:08.730Z,66.44
2019-01-22T10:01:12.246Z,66.46
2019-01-22T10:02:15.755Z,66.53
2019-01-22T10:03:19.340Z,66.46
2019-01-22T10:04:22.819Z,66.30
2019-01-22T10:05:26.321Z,66.02
2019-01-22T10:06:29.890Z,65.97
2019-01-22T10:07:33.414Z,65.91
2019-01-22T10:08:36.945Z,65.61
2019-01-22T10:09:40.421Z,65.82
2019-01-22T10:10:43.956Z,65.80
2019-01-22T10:11:47.523Z,65.97
2019-01-22T10:12:51.100Z,66.08
2019-01-22T10:13:54.824Z,66.27
2019-01-22T10:14:58.388Z,66.11
2019-01-22T10:16:02.013Z,66.13
2019-01-22T10:17:05.517Z,66.10
2019-01-22T10:18:09.120Z,65.99
2019-01-22T10:19:12.644Z,65.93
2019-01-22T10:20:23.699Z,65.90
2019-01-22T10:21:27.277Z,65.99
2019-01-22T10:22:30.778Z,66.09
2019-01-22T10:23:34.359Z,65.69
2019-01-22T10:24:37.906Z,66.31
2019-01-22T10:25:41.410Z,66.35
2019-01-22T10:26:44.921Z,65.95
2019-01-22T10:27:48.583Z,65.97
2019-01-22T10:28:52.214Z,66.08
2019-01-22T10:29:55.745Z,66.30
2019-01-22T10:30:59.239Z,66.31
2019-01-22T10:32:02.716Z,66.02
2019-01-22T10:33:06.300Z,65.90
2019-01-22T10:34:09.854Z,65.58
2019-01-22T10:35:14.255Z,65.85
2019-01-22T10:36:17.932Z,65.67
2019-01-22T10:37:21.426Z,65.71
2019-01-22T10:38:24.824Z,65.60
2019-01-22T10:39:28.279Z,65.20
2019-01-22T10:40:31.797Z,65.22
2019-01-22T10:41:35.313Z,65.37
2019-01-22T10:42:38.745Z,65.52
2019-01-22T10:43:42.164Z,65.76
2019-01-22T10:44:45.615Z,65.84
2019-01-22T10:45:49.080Z,65.89
2019-01-22T10:46:52.614Z,65.95
2019-01-22T10:47:56.116Z,65.56
2019-01-22T10:48:59.744Z,64.88
2019-01-22T10:50:04.474Z,65.25
2019-01-22T10:51:07.905Z,65.28
2019-01-22T10:52:11.339Z,65.26
2019-01-22T10:53:14.781Z,65.25
2019-01-22T10:54:18.295Z,65.45
2019-01-22T10:55:21.902Z,65.63
2019-01-22T10:56:25.371Z,65.49
2019-01-22T10:57:28.882Z,65.15
2019-01-22T10:58:32.468Z,65.09
2019-01-22T10:59:35.934Z,64.92
2019-01-22T11:00:39.732Z,65.07
2019-01-22T11:01:43.240Z,64.94
2019-01-22T11:02:46.674Z,64.45
2019-01-22T11:03:50.261Z,64.86
2019-01-22T11:04:53.869Z,65.12
2019-01-22T11:05:57.402Z,65.08
2019-01-22T11:07:00.850Z,65.19
2019-01-22T11:08:04.606Z,64.90
2019-01-22T11:09:08.495Z,64.90
2019-01-22T11:10:12.074Z,64.76
2019-01-22T11:11:15.599Z,64.65
2019-01-22T11:12:19.072Z,64.51
2019-01-22T11:13:22.520Z,64.50
2019-01-22T11:14:26.018Z,64.56
2019-01-22T11:15:29.540Z,64.47
2019-01-22T11:16:33.066Z,64.33
2019-01-22T11:17:36.502Z,63.95
2019-01-22T11:18:40.625Z,64.07
2019-01-22T11:19:44.072Z,64.24
2019-01-22T11:20:47.583Z,64.52
2019-01-22T11:21:51.044Z,64.49
2019-01-22T11:22:54.638Z,64.33
2019-01-22T11:23:58.330Z,64.33
2019-01-22T11:25:01.861Z,64.37
2019-01-22T11:26:05.428Z,64.29
2019-01-22T11:27:08.926Z,64.25
2019-01-22T11:28:12.515Z,64.17
2019-01-22T11:29:15.960Z,64.23
2019-01-22T11:30:22.433Z,64.20
2019-01-22T11:31:25.939Z,64.12
2019-01-22T11:32:29.383Z,63.90
2019-01-22T11:33:33.546Z,63.82
2019-01-22T11:34:37.097Z,63.78
2019-01-22T11:35:40.598Z,63.35
2019-01-22T11:36:44.186Z,63.56
2019-01-22T11:37:47.701Z,63.42
2019-01-22T11:38:51.391Z,63.08
2019-01-22T11:39:54.825Z,63.43
2019-01-22T11:40:58.347Z,63.70
2019-01-22T11:42:01.874Z,63.76
2019-01-22T11:43:05.546Z,63.74
2019-01-22T11:44:09.048Z,63.32
2019-01-22T11:45:12.723Z,63.41
2019-01-22T11:46:16.307Z,63.47
2019-01-22T11:47:19.829Z,63.34
2019-01-22T11:48:23.263Z,63.42
2019-01-22T11:49:26.772Z,63.12
2019-01-22T11:50:30.223Z,63.01
2019-01-22T11:51:33.646Z,62.85
2019-01-22T11:52:37.167Z,63.09
2019-01-22T11:53:40.752Z,63.07
2019-01-22T11:54:44.196Z,62.89
2019-01-22T11:55:50.565Z,62.89
2019-01-22T11:56:52.903Z,62.79
2019-01-22T11:57:56.496Z,62.78
2019-01-22T11:59:00.073Z,62.68
2019-01-22T12:00:05.528Z,62.60
2019-01-22T12:01:09.122Z,62.53
2019-01-22T12:02:12.712Z,62.58
2019-01-22T12:03:16.294Z,62.77
2019-01-22T12:04:19.861Z,62.83
2019-01-22T12:05:23.310Z,62.50
2019-01-22T12:06:26.780Z,62.54
2019-01-22T12:07:30.248Z,62.49
2019-01-22T12:08:33.719Z,62.43
2019-01-22T12:09:37.155Z,62.58
2019-01-22T12:10:40.660Z,62.48
2019-01-22T12:11:44.097Z,62.18
2019-01-22T12:12:47.600Z,62.23
2019-01-22T12:13:54.058Z,62.37
2019-01-22T12:14:56.301Z,62.52
2019-01-22T12:15:59.816Z,62.57
2019-01-22T12:17:03.254Z,62.31
2019-01-22T12:18:06.844Z,62.30
2019-01-22T12:19:10.383Z,62.42
2019-01-22T12:20:19.568Z,62.41
2019-01-22T12:21:23.080Z,62.25
2019-01-22T12:22:26.579Z,62.14
2019-01-22T12:23:30.102Z,61.94
2019-01-22T12:24:33.607Z,61.91
2019-01-22T12:25:37.025Z,61.89
2019-01-22T12:26:40.485Z,61.91
2019-01-22T12:27:43.996Z,61.84
2019-01-22T12:28:47.495Z,61.92
2019-01-22T12:29:50.951Z,61.89
2019-01-22T12:30:54.657Z,61.74
2019-01-22T12:31:58.170Z,61.85
2019-01-22T12:33:01.672Z,61.90
2019-01-22T12:34:05.261Z,61.62
2019-01-22T12:35:11.333Z,60.91
2019-01-22T12:36:14.847Z,61.15
2019-01-22T12:37:18.368Z,61.04
2019-01-22T12:38:21.793Z,61.13
2019-01-22T12:39:25.256Z,61.13
2019-01-22T12:40:29.143Z,60.73
2019-01-22T12:41:32.582Z,60.84
2019-01-22T12:42:36.084Z,60.88
2019-01-22T12:43:39.595Z,61.02
2019-01-22T12:44:43.108Z,61.14
2019-01-22T12:45:46.601Z,61.10
2019-01-22T12:46:50.071Z,61.13
2019-01-22T12:47:53.601Z,61.38
2019-01-22T12:48:57.045Z,61.36
2019-01-22T12:50:00.496Z,61.30
2019-01-22T12:51:04.071Z,61.28
2019-01-22T12:52:07.579Z,60.71
2019-01-22T12:53:11.192Z,60.60
2019-01-22T12:54:14.701Z,60.64
2019-01-22T12:55:18.407Z,60.46
2019-01-22T12:56:21.839Z,60.21
2019-01-22T12:57:25.279Z,60.01
2019-01-22T12:58:28.716Z,59.05
2019-01-22T12:59:32.246Z,59.03
2019-01-22T13:00:37.788Z,58.87
2019-01-22T13:01:41.214Z,59.46
2019-01-22T13:02:44.723Z,59.65
2019-01-22T13:03:48.184Z,59.59
2019-01-22T13:04:51.682Z,59.31
2019-01-22T13:05:56.162Z,58.86
2019-01-22T13:06:59.730Z,58.74
2019-01-22T13:08:03.311Z,58.99
2019-01-22T13:09:08.002Z,59.31
2019-01-22T13:10:11.571Z,58.76
2019-01-22T13:11:15.072Z,59.03
2019-01-22T13:12:18.510Z,59.04
2019-01-22T13:13:22.009Z,58.80
2019-01-22T13:14:25.466Z,58.48
2019-01-22T13:15:28.981Z,58.19
2019-01-22T13:16:32.526Z,58.09
2019-01-22T13:17:36.041Z,57.54
2019-01-22T13:18:39.538Z,57.57
2019-01-22T13:19:42.999Z,56.98
2019-01-22T13:20:46.653Z,57.55
2019-01-22T13:21:50.084Z,57.31
2019-01-22T13:22:53.513Z,56.37
2019-01-22T13:23:57.018Z,57.28
2019-01-22T13:25:00.474Z,57.39
2019-01-22T13:26:04.055Z,57.18
2019-01-22T13:27:07.487Z,56.75
2019-01-22T13:28:11.088Z,56.76
2019-01-22T13:29:14.611Z,56.96
2019-01-22T13:30:24.858Z,57.17
2019-01-22T13:31:28.335Z,56.99
2019-01-22T13:32:31.837Z,56.79
2019-01-22T13:33:35.341Z,56.79
2019-01-22T13:34:38.792Z,57.19
2019-01-22T13:35:42.363Z,57.02
2019-01-22T13:36:45.798Z,57.22
2019-01-22T13:37:49.486Z,56.99
2019-01-22T13:38:52.923Z,57.22
2019-01-22T13:39:56.396Z,57.43
2019-01-22T13:40:59.831Z,57.29
2019-01-22T13:42:03.321Z,57.54
2019-01-22T13:43:06.899Z,57.73
2019-01-22T13:44:10.333Z,57.78
2019-01-22T13:45:28.554Z,57.80
2019-01-22T13:46:31.984Z,57.84
2019-01-22T13:47:35.483Z,57.75
2019-01-22T13:48:39.139Z,58.01
2019-01-22T13:49:42.672Z,57.84
2019-01-22T13:50:46.099Z,57.25
2019-01-22T13:51:49.536Z,57.86
2019-01-22T13:52:53.122Z,57.84
2019-01-22T13:53:56.640Z,57.86
2019-01-22T13:55:00.190Z,57.86
2019-01-22T13:56:03.785Z,57.35
2019-01-22T13:57:07.383Z,57.78
2019-01-22T13:58:10.908Z,57.96
2019-01-22T13:59:14.359Z,58.24
2019-01-22T14:00:20.342Z,58.30
2019-01-22T14:01:23.864Z,58.19
2019-01-22T14:02:27.365Z,58.15
2019-01-22T14:03:30.863Z,57.87
2019-01-22T14:04:34.391Z,57.94
2019-01-22T14:05:38.035Z,57.95
2019-01-22T14:06:41.477Z,57.51
2019-01-22T14:07:45.050Z,57.84
2019-01-22T14:08:48.485Z,57.93
2019-01-22T14:09:51.964Z,57.82
2019-01-22T14:10:55.414Z,57.62
2019-01-22T14:11:58.921Z,57.59
2019-01-22T14:13:02.353Z,57.72
2019-01-22T14:14:05.945Z,57.90
2019-01-22T14:15:12.751Z,57.93
2019-01-22T14:16:16.250Z,57.78
2019-01-22T14:17:19.729Z,57.83
2019-01-22T14:18:23.273Z,57.93
2019-01-22T14:19:26.816Z,58.05
2019-01-22T14:20:30.344Z,58.05
2019-01-22T14:21:33.769Z,58.03
2019-01-22T14:22:37.204Z,58.17
2019-01-22T14:23:40.653Z,58.44
2019-01-22T14:24:44.181Z,58.40
2019-01-22T14:25:47.692Z,58.51
2019-01-22T14:26:52.407Z,58.57
2019-01-22T14:27:55.926Z,58.64
2019-01-22T14:28:59.363Z,58.77
2019-01-22T14:30:02.955Z,58.76
2019-01-22T14:31:06.543Z,58.63
2019-01-22T14:32:10.139Z,58.39
2019-01-22T14:33:13.595Z,58.55
2019-01-22T14:34:17.061Z,58.45
2019-01-22T14:35:20.666Z,58.43
2019-01-22T14:36:24.162Z,58.61
2019-01-22T14:37:27.678Z,58.66
2019-01-22T14:38:31.119Z,58.72
2019-01-22T14:39:34.572Z,58.96
2019-01-22T14:40:38.148Z,59.68
2019-01-22T14:41:41.607Z,60.17
2019-01-22T14:42:45.172Z,60.33
2019-01-22T14:43:48.675Z,60.27
2019-01-22T14:44:52.107Z,60.40
2019-01-22T14:45:55.550Z,60.45
2019-01-22T14:46:59.055Z,60.62
2019-01-22T14:48:02.495Z,60.76
2019-01-22T14:49:06.017Z,60.79
2019-01-22T14:50:12.771Z,60.76
2019-01-22T14:51:16.262Z,61.05
2019-01-22T14:52:19.779Z,61.13